Flight Number: EUR3026 Duration: 11:30
Departure: Tel Aviv Ben Gurion (LLBG) at 08:00 Distance: 4920 Nm
Arrival: John F Kennedy Int'l (KJFK) at 19:30 Equipment: B777

Weather Information
Ben-Gurion International Airport, Israel (LLBG) 32-00N 034-54E 49M May 24, 2018 - 05:20 PM EDT / 2018.05.24 2120 UTC
Wind: Variable at 3 MPH (3 KT):0
Visibility: greater than 7 mile(s):0 Temperature: 73 F (23 C) Dew Point: 55 F (13 C) Relative Humidity: 53% Pressure (altimeter): 29.85 in. Hg (1011 hPa)
ob: LLBG 242120Z VRB03KT CAVOK 23/13 Q1011 NOSIG cycle: 21
Sunrise: 02:40 Sunset: 16:33 (UTC)

KENNEDY INTERNATIONAL AIRPORT , NY, United States (KJFK) 40-38N 073-46W 9M May 24, 2018 - 04:51 PM EDT / 2018.05.24 2051 UTC
Wind: from the S (190 degrees) at 12 MPH (10 KT):0
Visibility: 10 mile(s):0
Sky conditions: mostly clear Temperature: 77.0 F (25.0 C) Dew Point: 43.0 F (6.1 C) Relative Humidity: 29% Pressure (altimeter): 30.09 in. Hg (1018 hPa) Pressure tendency: 0.02 inches (0.8 hPa) lower than three hours ago
ob: KJFK 242051Z 19010KT 10SM FEW250 25/06 A3009 RMK AO2 SLP190 T02500061 58008 cycle: 21
Sunrise: 09:33 Sunset: 00:10 (UTC)

TAF:2018/05/24 21:21 TAF AMD KJFK 242113Z 2421/2524 19011KT P6SM SKC FM250200 20007KT P6SM SKC FM250900 23005KT P6SM SKC FM251400 23010KT P6SM SKC FM251800 22016G25KT P6SM SKC

Previous Pireps for this route
Date Aircraft Flight time Fuel used Landing rate On time
2016-02-03A34010.29201758-289Charter
(pireps marked green are flown by you)

Route map